Terminal Aerodrome Forecast
Issued by NWS

Current Version | Previous Version | Graphics & Text | Print | Product List | Glossary On
Versions: 1 2 3 4 5 6 7 8 9 10 11 12 13 14 15 16 17 18 19 20 21 22 23 24 25 26 27 28 29 30 31 32 33 34 35 36 37 38 39 40 41 42 43 44 45 46 47
000
FTUS41 KRNK 270532
TAFLWB
TAF
KLWB 270532Z 2706/2806 32007KT 6SM -SHRA SCT005 OVC025
      TEMPO 2706/2709 2SM -SHRA BR OVC012
     FM271100 32004KT P6SM -RASN SCT007 OVC015
     FM271500 32005KT P6SM SCT015 OVC025
     FM272000 31007KT P6SM OVC040=

USA.gov is the U.S. government's official web portal to all federal, state and local government web resources and services.